Accueil
METAR-TAF:

METAR-TAF

Aéroports :

Aéroport Châlons-Vatry

Châlons-en-Champagne, France

latitude: 48-46-34N, longitude: 004-11-04E, altitude: 179 m

Observation

Le bulletin a été fait il y a 39 minutes, à 05:30 UTC
Vent 6 kt de est/nord-est
Température -2°C
Humidité 100%
Pression 1031 hPa
Visibilité: 6000 m

METAR: LFOK 240530Z AUTO 06006KT 6000 NSC M02/M02 Q1031 TEMPO 3000 BR

Heure: 07:09 (06:09 UTC)

Prévision

Le bulletin a été fait il y a 1 heure et 9 minutes, à 05:00 UTC
Prévision valable du 24 à 06 UTC au 25 à 06 UTC
Vent 7 kt de est/nord-est
Visibilité: 7000 m
Temporairement
du 24 à 06 UTC au 24 à 09 UTC
Visibilité: 3000 m
brume
Evoluant progressivement
du 24 à 18 UTC au 24 à 21 UTC
Visibilité: 3000 m
brume
Probabilité 30%
du 24 à 21 UTC au 25 à 06 UTC
Visibilité: 0200 m
brouillard givrant

TAF: LFOK 240500Z 2406/2506 06007KT 7000 NSC TEMPO 2406/2409 3000 BR BECMG 2418/2421 3000 BR PROB30 2421/2506 0200 FZFG VV///

Observations et prévisions météorologiques de plus de 4000 aéroports (messages METAR et TAF).

Les stations disponibles sont représentées par des disques jaunes et rouges sur la carte.

Passer la souris dessus pour voir le nom de la station.

Cliquer dessus pour voir les observations et prévisions météorologiques.

Pour changer de carte: cliquez sur les boutons verts avec une croix noire pour zoomer, sur le bouton vert avec un tiret pour effectuer un zoom arrière, ou sur les flèches vertes pour les cartes adjacentes.


METAR-TAF: